sensor_id;sensor_type;location;lat;lon;timestamp;pressure;altitude;pressure_sealevel;temperature
20092;BMP180;10205;49.678;6.560;2023-08-08T00:01:49;100044.00;;;21.40
20092;BMP180;10205;49.678;6.560;2023-08-08T00:04:18;100044.00;;;21.30
20092;BMP180;10205;49.678;6.560;2023-08-08T00:06:45;100032.00;;;21.30
20092;BMP180;10205;49.678;6.560;2023-08-08T00:09:13;100037.00;;;21.20
20092;BMP180;10205;49.678;6.560;2023-08-08T00:11:41;100045.00;;;21.20
20092;BMP180;10205;49.678;6.560;2023-08-08T00:14:08;100049.00;;;21.10
20092;BMP180;10205;49.678;6.560;2023-08-08T00:16:35;100048.00;;;21.10
20092;BMP180;10205;49.678;6.560;2023-08-08T00:19:03;100056.00;;;21.10
20092;BMP180;10205;49.678;6.560;2023-08-08T00:21:32;100044.00;;;21.00
20092;BMP180;10205;49.678;6.560;2023-08-08T00:23:59;100052.00;;;21.00
20092;BMP180;10205;49.678;6.560;2023-08-08T00:26:26;100047.00;;;20.90
20092;BMP180;10205;49.678;6.560;2023-08-08T00:28:54;100047.00;;;20.90
20092;BMP180;10205;49.678;6.560;2023-08-08T00:31:21;100050.00;;;20.90
20092;BMP180;10205;49.678;6.560;2023-08-08T00:33:48;100046.00;;;20.80
20092;BMP180;10205;49.678;6.560;2023-08-08T00:36:16;100043.00;;;20.80
20092;BMP180;10205;49.678;6.560;2023-08-08T00:38:45;100049.00;;;20.70
20092;BMP180;10205;49.678;6.560;2023-08-08T00:41:12;100046.00;;;20.70
20092;BMP180;10205;49.678;6.560;2023-08-08T00:43:39;100043.00;;;20.70
20092;BMP180;10205;49.678;6.560;2023-08-08T00:46:07;100032.00;;;20.60
20092;BMP180;10205;49.678;6.560;2023-08-08T00:48:34;100046.00;;;20.60
20092;BMP180;10205;49.678;6.560;2023-08-08T00:51:02;100038.00;;;20.60
20092;BMP180;10205;49.678;6.560;2023-08-08T00:53:30;100032.00;;;20.50
20092;BMP180;10205;49.678;6.560;2023-08-08T00:56:00;100034.00;;;20.50
20092;BMP180;10205;49.678;6.560;2023-08-08T00:58:27;100035.00;;;20.40
20092;BMP180;10205;49.678;6.560;2023-08-08T01:00:55;100039.00;;;20.40
20092;BMP180;10205;49.678;6.560;2023-08-08T01:03:25;100041.00;;;20.40
20092;BMP180;10205;49.678;6.560;2023-08-08T01:06:03;100038.00;;;20.40
20092;BMP180;10205;49.678;6.560;2023-08-08T01:08:40;100037.00;;;20.30
20092;BMP180;10205;49.678;6.560;2023-08-08T01:11:12;100037.00;;;20.30
20092;BMP180;10205;49.678;6.560;2023-08-08T01:13:41;100032.00;;;20.30
20092;BMP180;10205;49.678;6.560;2023-08-08T01:16:10;100030.00;;;20.20
20092;BMP180;10205;49.678;6.560;2023-08-08T01:18:39;100029.00;;;20.10
20092;BMP180;10205;49.678;6.560;2023-08-08T01:21:09;100035.00;;;20.10
20092;BMP180;10205;49.678;6.560;2023-08-08T01:23:46;100033.00;;;20.10
20092;BMP180;10205;49.678;6.560;2023-08-08T01:26:20;100038.00;;;20.10
20092;BMP180;10205;49.678;6.560;2023-08-08T01:28:52;100035.00;;;20.00
20092;BMP180;10205;49.678;6.560;2023-08-08T01:31:19;100040.00;;;20.00
20092;BMP180;10205;49.678;6.560;2023-08-08T01:33:48;100037.00;;;20.00
20092;BMP180;10205;49.678;6.560;2023-08-08T01:36:25;100036.00;;;19.90
20092;BMP180;10205;49.678;6.560;2023-08-08T01:38:59;100037.00;;;19.90
20092;BMP180;10205;49.678;6.560;2023-08-08T01:41:33;100034.00;;;19.80
20092;BMP180;10205;49.678;6.560;2023-08-08T01:44:01;100027.00;;;19.80
20092;BMP180;10205;49.678;6.560;2023-08-08T01:46:30;100034.00;;;19.70
20092;BMP180;10205;49.678;6.560;2023-08-08T01:48:58;100030.00;;;19.70
20092;BMP180;10205;49.678;6.560;2023-08-08T01:51:26;100035.00;;;19.70
20092;BMP180;10205;49.678;6.560;2023-08-08T01:53:54;100027.00;;;19.70
20092;BMP180;10205;49.678;6.560;2023-08-08T01:56:22;100029.00;;;19.70
20092;BMP180;10205;49.678;6.560;2023-08-08T01:58:50;100021.00;;;19.60
20092;BMP180;10205;49.678;6.560;2023-08-08T02:01:18;100020.00;;;19.60
20092;BMP180;10205;49.678;6.560;2023-08-08T02:03:45;100025.00;;;19.60
20092;BMP180;10205;49.678;6.560;2023-08-08T02:06:12;100027.00;;;19.50
20092;BMP180;10205;49.678;6.560;2023-08-08T02:08:40;100030.00;;;19.50
20092;BMP180;10205;49.678;6.560;2023-08-08T02:11:07;100037.00;;;19.50
20092;BMP180;10205;49.678;6.560;2023-08-08T02:13:35;100035.00;;;19.50
20092;BMP180;10205;49.678;6.560;2023-08-08T02:16:04;100037.00;;;19.40
20092;BMP180;10205;49.678;6.560;2023-08-08T02:18:31;100031.00;;;19.40
20092;BMP180;10205;49.678;6.560;2023-08-08T02:20:59;100037.00;;;19.30
20092;BMP180;10205;49.678;6.560;2023-08-08T02:23:26;100032.00;;;19.30
20092;BMP180;10205;49.678;6.560;2023-08-08T02:25:54;100035.00;;;19.30
20092;BMP180;10205;49.678;6.560;2023-08-08T02:28:21;100033.00;;;19.20
20092;BMP180;10205;49.678;6.560;2023-08-08T02:30:48;100035.00;;;19.20
20092;BMP180;10205;49.678;6.560;2023-08-08T02:33:17;100031.00;;;19.20
20092;BMP180;10205;49.678;6.560;2023-08-08T02:35:45;100032.00;;;19.20
20092;BMP180;10205;49.678;6.560;2023-08-08T02:38:12;100043.00;;;19.10
20092;BMP180;10205;49.678;6.560;2023-08-08T02:40:39;100029.00;;;19.10
20092;BMP180;10205;49.678;6.560;2023-08-08T02:43:07;100032.00;;;19.10
20092;BMP180;10205;49.678;6.560;2023-08-08T02:45:35;100040.00;;;19.00
20092;BMP180;10205;49.678;6.560;2023-08-08T02:48:03;100027.00;;;19.00
20092;BMP180;10205;49.678;6.560;2023-08-08T02:50:32;100025.00;;;19.00
20092;BMP180;10205;49.678;6.560;2023-08-08T02:52:59;100043.00;;;18.90
20092;BMP180;10205;49.678;6.560;2023-08-08T02:55:26;100033.00;;;18.90
20092;BMP180;10205;49.678;6.560;2023-08-08T02:57:54;100034.00;;;18.90
20092;BMP180;10205;49.678;6.560;2023-08-08T03:00:21;100032.00;;;18.90
20092;BMP180;10205;49.678;6.560;2023-08-08T03:02:48;100029.00;;;18.80
20092;BMP180;10205;49.678;6.560;2023-08-08T03:05:16;100024.00;;;18.80
20092;BMP180;10205;49.678;6.560;2023-08-08T03:07:45;100021.00;;;18.80
20092;BMP180;10205;49.678;6.560;2023-08-08T03:10:13;100027.00;;;18.70
20092;BMP180;10205;49.678;6.560;2023-08-08T03:12:41;100030.00;;;18.70
20092;BMP180;10205;49.678;6.560;2023-08-08T03:15:09;100029.00;;;18.70
20092;BMP180;10205;49.678;6.560;2023-08-08T03:17:37;100030.00;;;18.70
20092;BMP180;10205;49.678;6.560;2023-08-08T03:20:06;100015.00;;;18.60
20092;BMP180;10205;49.678;6.560;2023-08-08T03:22:33;100022.00;;;18.60
20092;BMP180;10205;49.678;6.560;2023-08-08T03:25:03;100031.00;;;18.60
20092;BMP180;10205;49.678;6.560;2023-08-08T03:27:31;100026.00;;;18.50
20092;BMP180;10205;49.678;6.560;2023-08-08T03:29:58;100027.00;;;18.50
20092;BMP180;10205;49.678;6.560;2023-08-08T03:32:27;100019.00;;;18.50
20092;BMP180;10205;49.678;6.560;2023-08-08T03:34:54;100021.00;;;18.40
20092;BMP180;10205;49.678;6.560;2023-08-08T03:37:22;100012.00;;;18.40
20092;BMP180;10205;49.678;6.560;2023-08-08T03:39:49;100013.00;;;18.40
20092;BMP180;10205;49.678;6.560;2023-08-08T03:42:18;100019.00;;;18.30
20092;BMP180;10205;49.678;6.560;2023-08-08T03:44:46;100017.00;;;18.30
20092;BMP180;10205;49.678;6.560;2023-08-08T03:47:13;100026.00;;;18.30
20092;BMP180;10205;49.678;6.560;2023-08-08T03:49:40;100014.00;;;18.30
20092;BMP180;10205;49.678;6.560;2023-08-08T03:52:08;100020.00;;;18.20
20092;BMP180;10205;49.678;6.560;2023-08-08T03:54:35;100019.00;;;18.20
20092;BMP180;10205;49.678;6.560;2023-08-08T03:57:03;100021.00;;;18.20
20092;BMP180;10205;49.678;6.560;2023-08-08T03:59:32;100019.00;;;18.20
20092;BMP180;10205;49.678;6.560;2023-08-08T04:01:59;100006.00;;;18.10
20092;BMP180;10205;49.678;6.560;2023-08-08T04:04:27;100011.00;;;18.10
20092;BMP180;10205;49.678;6.560;2023-08-08T04:06:54;100014.00;;;18.00
20092;BMP180;10205;49.678;6.560;2023-08-08T04:09:22;100008.00;;;18.00
20092;BMP180;10205;49.678;6.560;2023-08-08T04:11:49;100017.00;;;18.00
20092;BMP180;10205;49.678;6.560;2023-08-08T04:14:16;100014.00;;;17.90
20092;BMP180;10205;49.678;6.560;2023-08-08T04:16:45;100011.00;;;17.90
20092;BMP180;10205;49.678;6.560;2023-08-08T04:19:12;100017.00;;;17.80
20092;BMP180;10205;49.678;6.560;2023-08-08T04:21:40;100016.00;;;17.80
20092;BMP180;10205;49.678;6.560;2023-08-08T04:24:07;100012.00;;;17.80
20092;BMP180;10205;49.678;6.560;2023-08-08T04:26:35;100018.00;;;17.80
20092;BMP180;10205;49.678;6.560;2023-08-08T04:29:02;100013.00;;;17.80
20092;BMP180;10205;49.678;6.560;2023-08-08T04:31:29;100013.00;;;17.70
20092;BMP180;10205;49.678;6.560;2023-08-08T04:33:59;100018.00;;;17.70
20092;BMP180;10205;49.678;6.560;2023-08-08T04:36:27;100024.00;;;17.70
20092;BMP180;10205;49.678;6.560;2023-08-08T04:38:55;100005.00;;;17.70
20092;BMP180;10205;49.678;6.560;2023-08-08T04:41:22;100007.00;;;17.60
20092;BMP180;10205;49.678;6.560;2023-08-08T04:43:50;100014.00;;;17.60
20092;BMP180;10205;49.678;6.560;2023-08-08T04:46:18;100012.00;;;17.60
20092;BMP180;10205;49.678;6.560;2023-08-08T04:48:45;100019.00;;;17.50
20092;BMP180;10205;49.678;6.560;2023-08-08T04:51:14;100015.00;;;17.50
20092;BMP180;10205;49.678;6.560;2023-08-08T04:53:41;100006.00;;;17.50
20092;BMP180;10205;49.678;6.560;2023-08-08T04:56:08;100011.00;;;17.40
20092;BMP180;10205;49.678;6.560;2023-08-08T04:58:36;100012.00;;;17.40
20092;BMP180;10205;49.678;6.560;2023-08-08T05:01:03;100017.00;;;17.40
20092;BMP180;10205;49.678;6.560;2023-08-08T05:03:30;100004.00;;;17.40
20092;BMP180;10205;49.678;6.560;2023-08-08T05:05:58;100003.00;;;17.30
20092;BMP180;10205;49.678;6.560;2023-08-08T05:08:27;100007.00;;;17.30
20092;BMP180;10205;49.678;6.560;2023-08-08T05:10:55;99994.00;;;17.30
20092;BMP180;10205;49.678;6.560;2023-08-08T05:13:22;99999.00;;;17.30
20092;BMP180;10205;49.678;6.560;2023-08-08T05:15:49;100006.00;;;17.30
20092;BMP180;10205;49.678;6.560;2023-08-08T05:18:16;100013.00;;;17.20
20092;BMP180;10205;49.678;6.560;2023-08-08T05:20:44;100002.00;;;17.20
20092;BMP180;10205;49.678;6.560;2023-08-08T05:23:11;100020.00;;;17.10
20092;BMP180;10205;49.678;6.560;2023-08-08T05:25:40;100001.00;;;17.10
20092;BMP180;10205;49.678;6.560;2023-08-08T05:28:07;100005.00;;;17.10
20092;BMP180;10205;49.678;6.560;2023-08-08T05:30:35;100022.00;;;17.10
20092;BMP180;10205;49.678;6.560;2023-08-08T05:33:03;100012.00;;;17.00
20092;BMP180;10205;49.678;6.560;2023-08-08T05:35:31;100004.00;;;17.00
20092;BMP180;10205;49.678;6.560;2023-08-08T05:37:58;100001.00;;;17.00
20092;BMP180;10205;49.678;6.560;2023-08-08T05:40:25;100005.00;;;17.00
20092;BMP180;10205;49.678;6.560;2023-08-08T05:42:54;100003.00;;;16.90
20092;BMP180;10205;49.678;6.560;2023-08-08T05:45:22;100008.00;;;17.00
20092;BMP180;10205;49.678;6.560;2023-08-08T05:47:49;100003.00;;;16.90
20092;BMP180;10205;49.678;6.560;2023-08-08T05:50:17;100006.00;;;16.90
20092;BMP180;10205;49.678;6.560;2023-08-08T05:52:45;100009.00;;;16.90
20092;BMP180;10205;49.678;6.560;2023-08-08T05:55:12;100016.00;;;16.90
20092;BMP180;10205;49.678;6.560;2023-08-08T05:57:40;100005.00;;;16.90
20092;BMP180;10205;49.678;6.560;2023-08-08T06:00:11;100013.00;;;16.90
20092;BMP180;10205;49.678;6.560;2023-08-08T06:02:39;100006.00;;;16.90
20092;BMP180;10205;49.678;6.560;2023-08-08T06:05:08;100020.00;;;16.80
20092;BMP180;10205;49.678;6.560;2023-08-08T06:07:35;100007.00;;;16.90
20092;BMP180;10205;49.678;6.560;2023-08-08T06:10:04;100006.00;;;16.90
20092;BMP180;10205;49.678;6.560;2023-08-08T06:12:31;100004.00;;;16.90
20092;BMP180;10205;49.678;6.560;2023-08-08T06:14:59;100010.00;;;16.90
20092;BMP180;10205;49.678;6.560;2023-08-08T06:17:28;100010.00;;;16.90
20092;BMP180;10205;49.678;6.560;2023-08-08T06:19:55;99995.00;;;16.90
20092;BMP180;10205;49.678;6.560;2023-08-08T06:22:24;99996.00;;;16.90
20092;BMP180;10205;49.678;6.560;2023-08-08T06:24:51;100004.00;;;16.90
20092;BMP180;10205;49.678;6.560;2023-08-08T06:27:19;100001.00;;;17.00
20092;BMP180;10205;49.678;6.560;2023-08-08T06:29:47;100013.00;;;17.00
20092;BMP180;10205;49.678;6.560;2023-08-08T06:32:15;100015.00;;;17.00
20092;BMP180;10205;49.678;6.560;2023-08-08T06:34:44;100033.00;;;17.00
20092;BMP180;10205;49.678;6.560;2023-08-08T06:37:12;100015.00;;;17.10
20092;BMP180;10205;49.678;6.560;2023-08-08T06:39:40;100015.00;;;17.10
20092;BMP180;10205;49.678;6.560;2023-08-08T06:42:08;100017.00;;;17.10
20092;BMP180;10205;49.678;6.560;2023-08-08T06:44:42;100013.00;;;17.20
20092;BMP180;10205;49.678;6.560;2023-08-08T06:47:10;100017.00;;;17.20
20092;BMP180;10205;49.678;6.560;2023-08-08T06:49:38;100035.00;;;17.20
20092;BMP180;10205;49.678;6.560;2023-08-08T06:52:07;100015.00;;;17.20
20092;BMP180;10205;49.678;6.560;2023-08-08T06:54:34;100022.00;;;17.20
20092;BMP180;10205;49.678;6.560;2023-08-08T06:57:02;100011.00;;;17.30
20092;BMP180;10205;49.678;6.560;2023-08-08T06:59:30;100014.00;;;17.30
20092;BMP180;10205;49.678;6.560;2023-08-08T07:01:58;100013.00;;;17.30
20092;BMP180;10205;49.678;6.560;2023-08-08T07:04:25;100016.00;;;17.40
20092;BMP180;10205;49.678;6.560;2023-08-08T07:06:52;100018.00;;;17.50
20092;BMP180;10205;49.678;6.560;2023-08-08T07:09:22;100028.00;;;17.50
20092;BMP180;10205;49.678;6.560;2023-08-08T07:11:49;100022.00;;;17.50
20092;BMP180;10205;49.678;6.560;2023-08-08T07:14:17;100016.00;;;17.60
20092;BMP180;10205;49.678;6.560;2023-08-08T07:16:44;100023.00;;;17.60
20092;BMP180;10205;49.678;6.560;2023-08-08T07:19:12;100018.00;;;17.70
20092;BMP180;10205;49.678;6.560;2023-08-08T07:21:39;100015.00;;;17.70
20092;BMP180;10205;49.678;6.560;2023-08-08T07:24:07;100013.00;;;17.80
20092;BMP180;10205;49.678;6.560;2023-08-08T07:26:37;100022.00;;;17.80
20092;BMP180;10205;49.678;6.560;2023-08-08T07:29:05;100017.00;;;17.90
20092;BMP180;10205;49.678;6.560;2023-08-08T07:31:33;100007.00;;;17.90
20092;BMP180;10205;49.678;6.560;2023-08-08T07:34:00;100007.00;;;18.00
20092;BMP180;10205;49.678;6.560;2023-08-08T07:36:28;100006.00;;;18.10
20092;BMP180;10205;49.678;6.560;2023-08-08T07:38:55;100010.00;;;18.10
20092;BMP180;10205;49.678;6.560;2023-08-08T07:41:25;100010.00;;;18.20
20092;BMP180;10205;49.678;6.560;2023-08-08T07:43:54;100002.00;;;18.20
20092;BMP180;10205;49.678;6.560;2023-08-08T07:46:23;99992.00;;;18.30
20092;BMP180;10205;49.678;6.560;2023-08-08T07:48:50;100003.00;;;18.30
20092;BMP180;10205;49.678;6.560;2023-08-08T07:51:17;100003.00;;;18.40
20092;BMP180;10205;49.678;6.560;2023-08-08T07:53:46;100002.00;;;18.50
20092;BMP180;10205;49.678;6.560;2023-08-08T07:56:14;99991.00;;;18.50
20092;BMP180;10205;49.678;6.560;2023-08-08T07:58:41;99998.00;;;18.60
20092;BMP180;10205;49.678;6.560;2023-08-08T08:01:11;99987.00;;;18.60
20092;BMP180;10205;49.678;6.560;2023-08-08T08:03:39;99996.00;;;18.70
20092;BMP180;10205;49.678;6.560;2023-08-08T08:06:07;99998.00;;;18.80
20092;BMP180;10205;49.678;6.560;2023-08-08T08:08:35;99988.00;;;18.90
20092;BMP180;10205;49.678;6.560;2023-08-08T08:11:02;99983.00;;;19.00
20092;BMP180;10205;49.678;6.560;2023-08-08T08:13:30;99991.00;;;19.00
20092;BMP180;10205;49.678;6.560;2023-08-08T08:15:58;99985.00;;;19.10
20092;BMP180;10205;49.678;6.560;2023-08-08T08:18:27;99974.00;;;19.20
20092;BMP180;10205;49.678;6.560;2023-08-08T08:20:55;99975.00;;;19.20
20092;BMP180;10205;49.678;6.560;2023-08-08T08:23:23;99975.00;;;19.30
20092;BMP180;10205;49.678;6.560;2023-08-08T08:25:50;99975.00;;;19.40
20092;BMP180;10205;49.678;6.560;2023-08-08T08:28:20;99992.00;;;19.50
20092;BMP180;10205;49.678;6.560;2023-08-08T08:30:48;99986.00;;;19.50
20092;BMP180;10205;49.678;6.560;2023-08-08T08:33:16;99985.00;;;19.60
20092;BMP180;10205;49.678;6.560;2023-08-08T08:35:45;99993.00;;;19.70
20092;BMP180;10205;49.678;6.560;2023-08-08T08:38:13;99996.00;;;19.70
20092;BMP180;10205;49.678;6.560;2023-08-08T08:40:41;99991.00;;;19.80
20092;BMP180;10205;49.678;6.560;2023-08-08T08:43:12;99998.00;;;19.80
20092;BMP180;10205;49.678;6.560;2023-08-08T08:45:47;99999.00;;;19.90
20092;BMP180;10205;49.678;6.560;2023-08-08T08:48:17;99997.00;;;20.00
20092;BMP180;10205;49.678;6.560;2023-08-08T08:50:48;99991.00;;;20.10
20092;BMP180;10205;49.678;6.560;2023-08-08T08:53:16;99996.00;;;20.10
20092;BMP180;10205;49.678;6.560;2023-08-08T08:55:44;99999.00;;;20.20
20092;BMP180;10205;49.678;6.560;2023-08-08T08:58:15;99994.00;;;20.20
20092;BMP180;10205;49.678;6.560;2023-08-08T09:00:45;99992.00;;;20.30
20092;BMP180;10205;49.678;6.560;2023-08-08T09:03:14;99984.00;;;20.40
20092;BMP180;10205;49.678;6.560;2023-08-08T09:05:44;100006.00;;;20.40
20092;BMP180;10205;49.678;6.560;2023-08-08T09:08:16;99985.00;;;20.50
20092;BMP180;10205;49.678;6.560;2023-08-08T09:10:44;99990.00;;;20.50
20092;BMP180;10205;49.678;6.560;2023-08-08T09:13:12;99995.00;;;20.60
20092;BMP180;10205;49.678;6.560;2023-08-08T09:15:41;99976.00;;;20.60
20092;BMP180;10205;49.678;6.560;2023-08-08T09:18:08;99990.00;;;20.70
20092;BMP180;10205;49.678;6.560;2023-08-08T09:20:35;99982.00;;;20.70
20092;BMP180;10205;49.678;6.560;2023-08-08T09:23:03;99992.00;;;20.80
20092;BMP180;10205;49.678;6.560;2023-08-08T09:25:36;99978.00;;;20.80
20092;BMP180;10205;49.678;6.560;2023-08-08T09:28:04;99980.00;;;20.90
20092;BMP180;10205;49.678;6.560;2023-08-08T09:30:31;99969.00;;;21.00
20092;BMP180;10205;49.678;6.560;2023-08-08T09:33:00;99973.00;;;21.00
20092;BMP180;10205;49.678;6.560;2023-08-08T09:35:29;99979.00;;;21.10
20092;BMP180;10205;49.678;6.560;2023-08-08T09:37:56;99981.00;;;21.20
20092;BMP180;10205;49.678;6.560;2023-08-08T09:40:24;99964.00;;;21.20
20092;BMP180;10205;49.678;6.560;2023-08-08T09:42:56;99968.00;;;21.30
20092;BMP180;10205;49.678;6.560;2023-08-08T09:45:24;99970.00;;;21.40
20092;BMP180;10205;49.678;6.560;2023-08-08T09:47:52;99965.00;;;21.40
20092;BMP180;10205;49.678;6.560;2023-08-08T09:50:20;99972.00;;;21.50
20092;BMP180;10205;49.678;6.560;2023-08-08T09:52:48;99971.00;;;21.60
20092;BMP180;10205;49.678;6.560;2023-08-08T09:55:16;99964.00;;;21.60
20092;BMP180;10205;49.678;6.560;2023-08-08T09:57:45;99963.00;;;21.70
20092;BMP180;10205;49.678;6.560;2023-08-08T10:00:16;99970.00;;;21.80
20092;BMP180;10205;49.678;6.560;2023-08-08T10:02:47;99976.00;;;21.80
20092;BMP180;10205;49.678;6.560;2023-08-08T10:05:15;99968.00;;;21.90
20092;BMP180;10205;49.678;6.560;2023-08-08T10:07:43;99963.00;;;22.00
20092;BMP180;10205;49.678;6.560;2023-08-08T10:10:11;99971.00;;;22.10
20092;BMP180;10205;49.678;6.560;2023-08-08T10:12:38;99965.00;;;22.20
20092;BMP180;10205;49.678;6.560;2023-08-08T10:15:08;99968.00;;;22.20
20092;BMP180;10205;49.678;6.560;2023-08-08T10:17:39;99973.00;;;22.30
20092;BMP180;10205;49.678;6.560;2023-08-08T10:20:10;99963.00;;;22.40
20092;BMP180;10205;49.678;6.560;2023-08-08T10:22:42;99945.00;;;22.50
20092;BMP180;10205;49.678;6.560;2023-08-08T10:25:18;99949.00;;;22.60
20092;BMP180;10205;49.678;6.560;2023-08-08T10:27:46;99960.00;;;22.70
20092;BMP180;10205;49.678;6.560;2023-08-08T10:30:14;99964.00;;;22.80
20092;BMP180;10205;49.678;6.560;2023-08-08T10:32:45;99958.00;;;22.90
20092;BMP180;10205;49.678;6.560;2023-08-08T10:35:13;99959.00;;;22.90
20092;BMP180;10205;49.678;6.560;2023-08-08T10:37:51;99960.00;;;23.00
20092;BMP180;10205;49.678;6.560;2023-08-08T10:40:21;99960.00;;;23.10
20092;BMP180;10205;49.678;6.560;2023-08-08T10:42:48;99951.00;;;23.20
20092;BMP180;10205;49.678;6.560;2023-08-08T10:45:18;99954.00;;;23.20
20092;BMP180;10205;49.678;6.560;2023-08-08T10:47:47;99954.00;;;23.30
20092;BMP180;10205;49.678;6.560;2023-08-08T10:50:22;99962.00;;;23.40
20092;BMP180;10205;49.678;6.560;2023-08-08T10:52:55;99978.00;;;23.50
20092;BMP180;10205;49.678;6.560;2023-08-08T10:55:25;99969.00;;;23.50
20092;BMP180;10205;49.678;6.560;2023-08-08T10:57:58;99955.00;;;23.50
20092;BMP180;10205;49.678;6.560;2023-08-08T11:00:29;99958.00;;;23.60
20092;BMP180;10205;49.678;6.560;2023-08-08T11:03:00;99937.00;;;23.60
20092;BMP180;10205;49.678;6.560;2023-08-08T11:05:30;99942.00;;;23.60
20092;BMP180;10205;49.678;6.560;2023-08-08T11:07:58;99941.00;;;23.70
20092;BMP180;10205;49.678;6.560;2023-08-08T11:10:26;99954.00;;;23.70
20092;BMP180;10205;49.678;6.560;2023-08-08T11:12:59;99952.00;;;23.80
20092;BMP180;10205;49.678;6.560;2023-08-08T11:15:27;99949.00;;;23.80
20092;BMP180;10205;49.678;6.560;2023-08-08T11:17:56;99947.00;;;23.90
20092;BMP180;10205;49.678;6.560;2023-08-08T11:20:29;99956.00;;;23.90
20092;BMP180;10205;49.678;6.560;2023-08-08T11:22:57;99940.00;;;24.00
20092;BMP180;10205;49.678;6.560;2023-08-08T11:25:28;99944.00;;;24.00
20092;BMP180;10205;49.678;6.560;2023-08-08T11:27:57;99938.00;;;24.10
20092;BMP180;10205;49.678;6.560;2023-08-08T11:30:33;99940.00;;;24.20
20092;BMP180;10205;49.678;6.560;2023-08-08T11:33:01;99933.00;;;24.20
20092;BMP180;10205;49.678;6.560;2023-08-08T11:35:31;99924.00;;;24.30
20092;BMP180;10205;49.678;6.560;2023-08-08T11:38:01;99934.00;;;24.30
20092;BMP180;10205;49.678;6.560;2023-08-08T11:40:31;99933.00;;;24.40
20092;BMP180;10205;49.678;6.560;2023-08-08T11:42:59;99933.00;;;24.40
20092;BMP180;10205;49.678;6.560;2023-08-08T11:45:27;99927.00;;;24.50
20092;BMP180;10205;49.678;6.560;2023-08-08T11:47:55;99924.00;;;24.60
20092;BMP180;10205;49.678;6.560;2023-08-08T11:50:26;99929.00;;;24.60
20092;BMP180;10205;49.678;6.560;2023-08-08T11:52:56;99928.00;;;24.60
20092;BMP180;10205;49.678;6.560;2023-08-08T11:55:27;99924.00;;;24.60
20092;BMP180;10205;49.678;6.560;2023-08-08T11:57:56;99925.00;;;24.70
20092;BMP180;10205;49.678;6.560;2023-08-08T12:00:28;99933.00;;;24.70
20092;BMP180;10205;49.678;6.560;2023-08-08T12:02:56;99931.00;;;24.70
20092;BMP180;10205;49.678;6.560;2023-08-08T12:05:27;99922.00;;;24.70
20092;BMP180;10205;49.678;6.560;2023-08-08T12:07:59;99930.00;;;24.70
20092;BMP180;10205;49.678;6.560;2023-08-08T12:10:26;99928.00;;;24.80
20092;BMP180;10205;49.678;6.560;2023-08-08T12:12:56;99931.00;;;24.80
20092;BMP180;10205;49.678;6.560;2023-08-08T12:15:29;99927.00;;;24.80
20092;BMP180;10205;49.678;6.560;2023-08-08T12:17:58;99936.00;;;24.80
20092;BMP180;10205;49.678;6.560;2023-08-08T12:20:27;99926.00;;;24.80
20092;BMP180;10205;49.678;6.560;2023-08-08T12:22:57;99928.00;;;24.80
20092;BMP180;10205;49.678;6.560;2023-08-08T12:25:25;99921.00;;;24.90
20092;BMP180;10205;49.678;6.560;2023-08-08T12:27:52;99928.00;;;24.80
20092;BMP180;10205;49.678;6.560;2023-08-08T12:30:20;99920.00;;;24.80
20092;BMP180;10205;49.678;6.560;2023-08-08T12:32:47;99917.00;;;24.90
20092;BMP180;10205;49.678;6.560;2023-08-08T12:35:14;99910.00;;;25.00
20092;BMP180;10205;49.678;6.560;2023-08-08T12:37:43;99906.00;;;25.10
20092;BMP180;10205;49.678;6.560;2023-08-08T12:40:13;99911.00;;;25.20
20092;BMP180;10205;49.678;6.560;2023-08-08T12:42:40;99909.00;;;25.40
20092;BMP180;10205;49.678;6.560;2023-08-08T12:45:08;99915.00;;;25.50
20092;BMP180;10205;49.678;6.560;2023-08-08T12:47:37;99901.00;;;25.60
20092;BMP180;10205;49.678;6.560;2023-08-08T12:50:06;99903.00;;;25.80
20092;BMP180;10205;49.678;6.560;2023-08-08T12:52:33;99916.00;;;25.90
20092;BMP180;10205;49.678;6.560;2023-08-08T12:55:01;99901.00;;;26.10
20092;BMP180;10205;49.678;6.560;2023-08-08T12:57:31;99898.00;;;26.20
20092;BMP180;10205;49.678;6.560;2023-08-08T12:59:58;99905.00;;;26.30
20092;BMP180;10205;49.678;6.560;2023-08-08T13:02:25;99909.00;;;26.40
20092;BMP180;10205;49.678;6.560;2023-08-08T13:04:53;99892.00;;;26.50
20092;BMP180;10205;49.678;6.560;2023-08-08T13:07:21;99889.00;;;26.60
20092;BMP180;10205;49.678;6.560;2023-08-08T13:09:48;99899.00;;;26.60
20092;BMP180;10205;49.678;6.560;2023-08-08T13:12:16;99895.00;;;26.60
20092;BMP180;10205;49.678;6.560;2023-08-08T13:14:45;99905.00;;;26.60
20092;BMP180;10205;49.678;6.560;2023-08-08T13:17:12;99899.00;;;26.50
20092;BMP180;10205;49.678;6.560;2023-08-08T13:19:40;99903.00;;;26.50
20092;BMP180;10205;49.678;6.560;2023-08-08T13:22:07;99909.00;;;26.40
20092;BMP180;10205;49.678;6.560;2023-08-08T13:24:35;99914.00;;;26.40
20092;BMP180;10205;49.678;6.560;2023-08-08T13:27:03;99907.00;;;26.30
20092;BMP180;10205;49.678;6.560;2023-08-08T13:29:30;99913.00;;;26.20
20092;BMP180;10205;49.678;6.560;2023-08-08T13:31:59;99910.00;;;26.20
20092;BMP180;10205;49.678;6.560;2023-08-08T13:34:27;99904.00;;;26.10
20092;BMP180;10205;49.678;6.560;2023-08-08T13:36:54;99904.00;;;26.10
20092;BMP180;10205;49.678;6.560;2023-08-08T13:39:21;99895.00;;;26.00
20092;BMP180;10205;49.678;6.560;2023-08-08T13:41:49;99890.00;;;26.00
20092;BMP180;10205;49.678;6.560;2023-08-08T13:44:16;99890.00;;;26.00
20092;BMP180;10205;49.678;6.560;2023-08-08T13:46:44;99894.00;;;26.00
20092;BMP180;10205;49.678;6.560;2023-08-08T13:49:13;99897.00;;;26.10
20092;BMP180;10205;49.678;6.560;2023-08-08T13:51:40;99885.00;;;26.10
20092;BMP180;10205;49.678;6.560;2023-08-08T13:54:09;99889.00;;;26.20
20092;BMP180;10205;49.678;6.560;2023-08-08T13:56:36;99882.00;;;26.30
20092;BMP180;10205;49.678;6.560;2023-08-08T13:59:03;99880.00;;;26.30
20092;BMP180;10205;49.678;6.560;2023-08-08T14:01:31;99874.00;;;26.40
20092;BMP180;10205;49.678;6.560;2023-08-08T14:03:59;99881.00;;;26.50
20092;BMP180;10205;49.678;6.560;2023-08-08T14:06:27;99884.00;;;26.50
20092;BMP180;10205;49.678;6.560;2023-08-08T14:08:56;99868.00;;;26.60